createdAt,value
2022-09-07T00:00:09.618Z,75938.97
2022-09-07T00:02:36.447Z,75931.28
2022-09-07T00:05:03.397Z,75921.63
2022-09-07T00:07:30.739Z,75917.78
2022-09-07T00:09:57.528Z,75923.56
2022-09-07T00:12:24.436Z,75931.28
2022-09-07T00:14:51.254Z,75946.69
2022-09-07T00:17:18.073Z,75952.47
2022-09-07T00:19:44.892Z,75954.38
2022-09-07T00:22:11.648Z,75950.53
2022-09-07T00:24:38.445Z,75950.53
2022-09-07T00:27:05.437Z,75948.63
2022-09-07T00:29:32.233Z,75950.53
2022-09-07T00:31:59.071Z,75944.75
2022-09-07T00:34:25.918Z,75946.69
2022-09-07T00:36:52.738Z,75954.38
2022-09-07T00:39:19.536Z,75958.25
2022-09-07T00:41:46.424Z,75960.16
2022-09-07T00:44:38.128Z,75958.25
2022-09-07T00:47:09.896Z,75958.25
2022-09-07T00:49:38.605Z,75950.53
2022-09-07T00:52:10.109Z,75948.63
2022-09-07T00:54:44.793Z,75938.97
2022-09-07T00:57:12.082Z,75942.84
2022-09-07T00:59:45.588Z,75946.69
2022-09-07T01:02:14.806Z,75938.97
2022-09-07T01:04:42.136Z,75942.84
2022-09-07T01:07:09.095Z,75931.28
2022-09-07T01:09:36.590Z,75938.97
2022-09-07T01:12:04.775Z,75931.28
2022-09-07T01:14:46.204Z,75942.84
2022-09-07T01:17:39.813Z,75942.84
2022-09-07T01:20:29.970Z,75944.75
2022-09-07T01:23:25.759Z,75942.84
2022-09-07T01:26:16.772Z,75944.75
2022-09-07T01:28:47.362Z,75954.38
2022-09-07T01:31:21.415Z,75946.69
2022-09-07T01:33:54.449Z,75942.84
2022-09-07T01:36:37.272Z,75950.53
2022-09-07T01:39:05.759Z,75948.63
2022-09-07T01:41:52.450Z,75948.63
2022-09-07T01:44:28.664Z,75954.38
2022-09-07T01:47:21.846Z,75969.81
2022-09-07T01:49:55.270Z,75969.81
2022-09-07T01:52:42.655Z,75971.72
2022-09-07T01:55:19.323Z,75969.81
2022-09-07T01:57:54.758Z,75958.25
2022-09-07T02:00:21.616Z,75952.47
2022-09-07T02:02:58.674Z,75946.69
2022-09-07T02:05:36.278Z,75937.06
2022-09-07T02:08:14.243Z,75931.28
2022-09-07T02:10:55.923Z,75940.91
2022-09-07T02:13:46.262Z,75938.97
2022-09-07T02:16:19.510Z,75946.69
2022-09-07T02:18:50.036Z,75952.47
2022-09-07T02:21:22.098Z,75962.09
2022-09-07T02:23:57.078Z,75977.50
2022-09-07T02:26:28.104Z,75977.50
2022-09-07T02:28:55.762Z,75981.38
2022-09-07T02:31:23.288Z,75981.38
2022-09-07T02:33:50.287Z,75985.22
2022-09-07T02:36:21.515Z,75975.59
2022-09-07T02:38:48.381Z,75973.66
2022-09-07T02:41:47.673Z,75973.66
2022-09-07T02:44:37.194Z,75967.88
2022-09-07T02:47:09.802Z,75977.50
2022-09-07T02:50:11.225Z,75973.66
2022-09-07T02:52:59.307Z,75975.59
2022-09-07T02:55:38.000Z,75985.22
2022-09-07T02:58:38.373Z,75989.06
2022-09-07T03:01:17.210Z,75996.78
2022-09-07T03:03:44.046Z,75994.84
2022-09-07T03:06:23.463Z,75989.06
2022-09-07T03:08:54.656Z,75989.06
2022-09-07T03:11:22.589Z,75989.06
2022-09-07T03:13:49.373Z,75992.94
2022-09-07T03:16:16.714Z,75994.84
2022-09-07T03:18:45.097Z,75991.00
2022-09-07T03:21:12.147Z,75985.22
2022-09-07T03:23:39.238Z,75996.78
2022-09-07T03:26:06.357Z,75992.94
2022-09-07T03:28:33.191Z,76000.63
2022-09-07T03:31:02.139Z,76008.34
2022-09-07T03:33:29.128Z,75992.94
2022-09-07T03:36:02.486Z,75992.94
2022-09-07T03:38:31.273Z,75992.94
2022-09-07T03:41:02.089Z,75983.28
2022-09-07T03:43:29.845Z,75981.38
2022-09-07T03:46:02.954Z,75979.44
2022-09-07T03:48:34.578Z,75977.50
2022-09-07T03:51:09.873Z,75977.50
2022-09-07T03:53:39.688Z,75971.72
2022-09-07T03:56:16.098Z,75981.38
2022-09-07T03:58:42.896Z,75983.28
2022-09-07T04:01:12.943Z,75967.88
2022-09-07T04:03:39.924Z,75960.16
2022-09-07T04:06:07.072Z,75954.38
2022-09-07T04:08:35.547Z,75954.38
2022-09-07T04:11:04.293Z,75950.53
2022-09-07T04:13:32.652Z,75950.53
2022-09-07T04:15:59.430Z,75938.97
2022-09-07T04:18:26.539Z,75938.97
2022-09-07T04:20:53.327Z,75940.91
2022-09-07T04:23:20.629Z,75933.19
2022-09-07T04:25:48.961Z,75938.97
2022-09-07T04:28:16.922Z,75925.50
2022-09-07T04:30:43.801Z,75925.50
2022-09-07T04:33:11.285Z,75919.72
2022-09-07T04:35:39.501Z,75919.72
2022-09-07T04:38:07.380Z,75917.78
2022-09-07T04:40:36.125Z,75908.16
2022-09-07T04:43:03.141Z,75898.53
2022-09-07T04:45:29.932Z,75873.47
2022-09-07T04:47:56.792Z,75834.94
2022-09-07T04:50:24.607Z,75725.13
2022-09-07T04:52:51.607Z,75584.50
2022-09-07T04:55:18.986Z,75484.31
2022-09-07T04:57:49.897Z,75374.50
2022-09-07T05:00:17.288Z,75345.63
2022-09-07T05:02:44.179Z,75268.56
2022-09-07T05:05:11.023Z,75179.94
2022-09-07T05:07:37.852Z,75025.84
2022-09-07T05:10:05.179Z,74931.47
2022-09-07T05:12:31.958Z,74925.69
2022-09-07T05:14:58.979Z,74981.56
2022-09-07T05:17:25.755Z,75079.78
2022-09-07T05:19:52.571Z,75083.66
2022-09-07T05:22:19.382Z,74954.59
2022-09-07T05:24:47.488Z,74785.09
2022-09-07T05:27:14.380Z,74640.66
2022-09-07T05:32:27.928Z,74569.41
2022-09-07T05:34:54.760Z,74525.09
2022-09-07T05:37:21.674Z,74490.44
2022-09-07T05:39:48.644Z,74475.03
2022-09-07T05:42:15.531Z,74336.38
2022-09-07T05:47:14.122Z,74461.53
2022-09-07T05:49:40.958Z,74532.81
2022-09-07T05:52:07.834Z,74482.72
2022-09-07T05:54:35.028Z,74503.91
2022-09-07T05:57:03.699Z,74461.53
2022-09-07T05:59:30.727Z,74347.91
2022-09-07T06:01:57.543Z,74361.41
2022-09-07T06:04:24.438Z,74290.16
2022-09-07T06:07:18.092Z,74211.19
2022-09-07T06:12:25.890Z,74010.94
2022-09-07T06:14:52.711Z,74043.66
2022-09-07T06:17:19.769Z,74376.81
2022-09-07T06:19:46.547Z,74257.41
2022-09-07T06:22:13.402Z,74132.25
2022-09-07T06:24:40.256Z,74016.69
2022-09-07T06:27:07.032Z,73883.84
2022-09-07T06:29:33.842Z,73916.56
2022-09-07T06:34:47.379Z,74066.78
2022-09-07T06:37:14.468Z,74051.38
2022-09-07T06:39:41.352Z,73937.75
2022-09-07T06:42:08.356Z,73878.06
2022-09-07T06:44:42.073Z,73860.72
2022-09-07T06:47:08.889Z,74078.31
2022-09-07T06:49:35.657Z,73962.78
2022-09-07T06:52:02.714Z,73801.03
2022-09-07T06:57:16.367Z,74012.84
2022-09-07T06:59:43.294Z,73993.59
2022-09-07T07:02:14.840Z,73912.72
2022-09-07T07:04:41.576Z,73856.88
2022-09-07T07:07:12.834Z,73787.56
2022-09-07T07:09:40.556Z,73700.91
2022-09-07T07:12:07.431Z,73712.47
2022-09-07T07:14:37.244Z,73754.84
2022-09-07T07:17:07.059Z,73762.53
2022-09-07T07:19:34.827Z,73787.56
2022-09-07T07:24:48.435Z,73668.19
2022-09-07T07:27:15.516Z,73673.97
2022-09-07T07:29:42.318Z,73610.44
2022-09-07T07:32:09.160Z,73743.28
2022-09-07T07:34:35.993Z,73826.06
2022-09-07T07:37:02.846Z,73789.50
2022-09-07T07:42:16.631Z,73720.19
2022-09-07T07:44:43.396Z,73716.31
2022-09-07T07:47:10.274Z,73716.31
2022-09-07T07:49:37.021Z,74116.84
2022-09-07T07:54:50.856Z,73955.09
2022-09-07T07:57:19.046Z,73920.44
2022-09-07T07:59:46.242Z,73982.03
2022-09-07T08:02:17.198Z,74261.25
2022-09-07T08:04:44.073Z,74353.69
2022-09-07T08:07:12.115Z,74166.91
2022-09-07T08:09:46.872Z,74209.25
2022-09-07T08:12:16.995Z,74151.50
2022-09-07T08:14:44.201Z,74089.88
2022-09-07T08:17:13.246Z,74213.13
2022-09-07T08:19:40.181Z,74209.25
2022-09-07T08:22:08.792Z,74265.13
2022-09-07T08:24:35.576Z,74355.63
2022-09-07T08:27:04.102Z,74213.13
2022-09-07T08:29:34.445Z,74070.63
2022-09-07T08:32:04.020Z,74012.84
2022-09-07T08:34:30.906Z,73947.38
2022-09-07T08:36:57.591Z,73970.50
2022-09-07T08:39:24.321Z,74034.03
2022-09-07T08:42:12.865Z,74134.16
2022-09-07T08:45:11.686Z,74109.13
2022-09-07T08:47:49.140Z,74305.56
2022-09-07T08:50:30.325Z,74303.63
2022-09-07T08:52:57.234Z,74450.00
2022-09-07T08:55:30.070Z,74417.25
2022-09-07T08:58:02.888Z,74294.00
2022-09-07T09:00:30.090Z,74284.38
2022-09-07T09:06:06.079Z,74201.56
2022-09-07T09:09:09.653Z,74295.94
2022-09-07T09:11:55.321Z,74361.41
2022-09-07T09:14:50.280Z,74336.38
2022-09-07T09:17:26.308Z,74444.22
2022-09-07T09:20:35.568Z,74475.03
2022-09-07T09:23:10.499Z,74469.25
2022-09-07T09:25:39.795Z,74374.88
2022-09-07T09:28:11.841Z,74371.03
2022-09-07T09:30:38.795Z,74413.41
2022-09-07T09:33:26.530Z,74424.94
2022-09-07T09:35:55.791Z,74374.88
2022-09-07T09:38:31.210Z,74347.91
2022-09-07T09:41:09.902Z,74432.66
2022-09-07T09:43:55.940Z,74320.97
2022-09-07T09:46:33.942Z,74278.59
2022-09-07T09:49:17.201Z,74251.63
2022-09-07T09:54:41.168Z,74184.22
2022-09-07T09:57:16.275Z,74159.19
2022-09-07T10:00:02.731Z,74238.16
2022-09-07T10:05:37.778Z,74188.09
2022-09-07T10:08:19.288Z,74230.44
2022-09-07T10:10:52.166Z,74163.06
2022-09-07T10:13:22.293Z,74128.38
2022-09-07T10:15:55.204Z,74147.66
2022-09-07T10:18:33.623Z,74126.47
2022-09-07T10:21:22.979Z,74103.34
2022-09-07T10:24:00.698Z,74070.63
2022-09-07T10:26:32.186Z,74020.56
2022-09-07T10:29:15.185Z,74062.91
2022-09-07T10:31:54.455Z,74216.97
2022-09-07T10:34:27.142Z,74290.16
2022-09-07T10:37:08.492Z,74267.03
2022-09-07T10:39:41.652Z,74255.47
2022-09-07T10:42:35.710Z,74222.75
2022-09-07T10:45:11.677Z,74157.28
2022-09-07T10:48:07.195Z,74105.28
2022-09-07T10:50:48.185Z,74049.44
2022-09-07T10:53:46.547Z,74035.97
2022-09-07T10:56:35.634Z,74070.63
2022-09-07T10:59:26.748Z,74059.06
2022-09-07T11:01:58.504Z,74059.06
2022-09-07T11:05:03.388Z,74043.66
2022-09-07T11:07:36.030Z,74084.09
2022-09-07T11:10:33.938Z,74024.41
2022-09-07T11:13:05.335Z,74059.06
2022-09-07T11:15:45.965Z,74053.28
2022-09-07T11:18:20.426Z,74003.22
2022-09-07T11:20:59.029Z,73989.75
2022-09-07T11:23:32.029Z,73964.72
2022-09-07T11:26:30.819Z,73930.06
2022-09-07T11:32:20.344Z,73966.63
2022-09-07T11:34:55.471Z,74128.38
2022-09-07T11:37:36.854Z,74093.72
2022-09-07T11:40:17.231Z,74066.78
2022-09-07T11:43:05.437Z,74120.69
2022-09-07T11:45:49.666Z,74093.72
2022-09-07T11:48:43.649Z,74055.22
2022-09-07T11:51:25.532Z,74034.03
2022-09-07T11:54:00.920Z,74014.78
2022-09-07T11:56:38.352Z,73997.44
2022-09-07T11:59:05.004Z,74009.00
2022-09-07T12:01:50.518Z,73958.94
2022-09-07T12:04:46.607Z,73922.34
2022-09-07T12:07:30.544Z,73922.34
2022-09-07T12:10:25.857Z,73874.22
2022-09-07T12:13:31.215Z,73862.66
2022-09-07T12:16:07.821Z,73843.41
2022-09-07T12:19:05.632Z,73876.13
2022-09-07T12:21:38.360Z,73881.91
2022-09-07T12:24:25.083Z,73839.56
2022-09-07T12:26:52.542Z,73924.28
2022-09-07T12:29:25.079Z,73885.75
2022-09-07T12:32:52.567Z,73895.41
2022-09-07T12:34:52.887Z,73937.75
2022-09-07T12:37:37.753Z,73910.78
2022-09-07T12:40:33.259Z,73922.34
2022-09-07T12:43:14.944Z,73933.91
2022-09-07T12:45:42.142Z,73912.72
2022-09-07T12:48:15.007Z,73903.09
2022-09-07T12:51:03.455Z,73922.34
2022-09-07T12:53:56.937Z,73899.25
2022-09-07T13:00:08.435Z,73920.44
2022-09-07T13:03:06.046Z,73876.13
2022-09-07T13:05:39.055Z,73862.66
2022-09-07T13:08:31.292Z,73847.25
2022-09-07T13:11:22.163Z,73824.16
2022-09-07T13:14:03.842Z,73820.28
2022-09-07T13:19:47.005Z,73847.25
2022-09-07T13:22:32.346Z,73831.84
2022-09-07T13:25:01.492Z,73816.44
2022-09-07T13:28:04.383Z,73835.69
2022-09-07T13:30:54.815Z,73854.97
2022-09-07T13:33:24.697Z,73851.09
2022-09-07T13:36:03.041Z,73833.78
2022-09-07T13:38:31.807Z,73828.00
2022-09-07T13:41:06.384Z,73851.09
2022-09-07T13:43:34.902Z,73845.34
2022-09-07T13:46:09.381Z,73912.72
2022-09-07T13:48:49.787Z,73957.00
2022-09-07T13:51:43.246Z,73899.25
2022-09-07T13:54:37.847Z,73889.63
2022-09-07T13:57:20.173Z,73868.44
2022-09-07T13:59:50.809Z,73858.81
2022-09-07T14:02:32.348Z,73858.81
2022-09-07T14:05:00.604Z,73851.09
2022-09-07T14:07:29.730Z,73854.97
2022-09-07T14:10:11.569Z,73905.03
2022-09-07T14:12:44.519Z,73920.44
2022-09-07T14:15:21.017Z,73895.41
2022-09-07T14:17:48.940Z,73910.78
2022-09-07T14:20:18.041Z,73931.97
2022-09-07T14:22:48.350Z,73989.75
2022-09-07T14:25:19.109Z,74043.66
2022-09-07T14:27:47.890Z,74068.69
2022-09-07T14:30:16.285Z,74070.63
2022-09-07T14:32:44.115Z,74059.06
2022-09-07T14:35:15.778Z,74045.59
2022-09-07T14:37:42.727Z,74045.59
2022-09-07T14:40:22.138Z,74034.03
2022-09-07T14:42:50.095Z,74041.72
2022-09-07T14:45:22.818Z,74032.09
2022-09-07T14:47:55.343Z,74034.03
2022-09-07T14:50:33.808Z,74049.44
2022-09-07T14:56:02.241Z,74001.28
2022-09-07T14:58:32.570Z,73978.19
2022-09-07T15:04:01.963Z,73970.50
2022-09-07T15:09:28.216Z,73982.03
2022-09-07T15:12:27.182Z,73985.91
2022-09-07T15:15:21.447Z,74001.28
2022-09-07T15:17:48.719Z,74009.00
2022-09-07T15:20:32.577Z,74012.84
2022-09-07T15:22:59.545Z,74012.84
2022-09-07T15:25:26.256Z,74009.00
2022-09-07T15:27:54.506Z,74018.63
2022-09-07T15:30:21.171Z,74016.69
2022-09-07T15:32:47.921Z,74024.41
2022-09-07T15:35:15.862Z,74026.34
2022-09-07T15:40:33.265Z,74037.88
2022-09-07T15:43:00.705Z,74049.44
2022-09-07T15:45:27.827Z,74059.06
2022-09-07T15:47:54.713Z,74059.06
2022-09-07T15:50:23.252Z,74064.84
2022-09-07T15:52:50.177Z,74057.13
2022-09-07T15:55:17.389Z,74062.91
2022-09-07T15:57:48.790Z,74074.47
2022-09-07T16:00:17.623Z,74078.31
2022-09-07T16:05:31.687Z,74093.72
2022-09-07T16:10:55.957Z,74120.69
2022-09-07T16:13:24.354Z,74128.38
2022-09-07T16:15:51.568Z,74132.25
2022-09-07T16:18:18.672Z,74147.66
2022-09-07T16:20:45.736Z,74159.19
2022-09-07T16:23:15.144Z,74174.59
2022-09-07T16:25:54.224Z,74186.16
2022-09-07T16:28:21.065Z,74197.72
2022-09-07T16:30:48.146Z,74215.03
2022-09-07T16:33:15.263Z,74228.53
2022-09-07T16:35:42.252Z,74230.44
2022-09-07T16:40:55.874Z,74243.94
2022-09-07T16:43:23.021Z,74234.31
2022-09-07T16:46:03.967Z,74226.59
2022-09-07T16:48:33.053Z,74220.81
2022-09-07T16:51:02.668Z,74228.53
2022-09-07T16:53:31.359Z,74228.53
2022-09-07T16:56:12.305Z,74236.22
2022-09-07T16:58:44.571Z,74243.94
2022-09-07T17:01:14.873Z,74259.34
2022-09-07T17:03:42.663Z,74263.19
2022-09-07T17:06:11.429Z,74274.75
2022-09-07T17:08:39.900Z,74278.59
2022-09-07T17:11:10.327Z,74290.16
2022-09-07T17:13:39.067Z,74315.19
2022-09-07T17:16:08.388Z,74332.50
2022-09-07T17:21:23.117Z,74359.47
2022-09-07T17:23:55.117Z,74378.72
2022-09-07T17:26:26.035Z,74394.13
2022-09-07T17:29:00.248Z,74409.53
2022-09-07T17:34:20.082Z,74444.22
2022-09-07T17:36:47.225Z,74459.63
2022-09-07T17:39:16.458Z,74475.03
2022-09-07T17:41:45.239Z,74486.56
2022-09-07T17:44:12.072Z,74498.13
2022-09-07T17:46:39.135Z,74505.84
2022-09-07T17:49:10.139Z,74515.47
2022-09-07T17:51:37.260Z,74528.94
2022-09-07T17:54:10.268Z,74538.56
2022-09-07T17:56:39.044Z,74536.66
2022-09-07T18:01:54.204Z,74557.84
2022-09-07T18:04:21.802Z,74552.06
2022-09-07T18:06:49.004Z,74561.69
2022-09-07T18:09:15.811Z,74567.47
2022-09-07T18:11:47.100Z,74582.88
2022-09-07T18:14:15.417Z,74598.28
2022-09-07T18:16:44.983Z,74613.69
2022-09-07T18:19:12.822Z,74625.25
2022-09-07T18:21:42.110Z,74638.72
2022-09-07T18:24:13.995Z,74654.13
2022-09-07T18:26:41.212Z,74665.69
2022-09-07T18:29:19.243Z,74675.31
2022-09-07T18:31:55.273Z,74679.16
2022-09-07T18:34:22.399Z,74686.88
2022-09-07T18:36:49.162Z,74700.34
2022-09-07T18:39:16.180Z,74702.28
2022-09-07T18:41:43.027Z,74709.97
2022-09-07T18:46:56.542Z,74736.94
2022-09-07T18:49:23.579Z,74742.72
2022-09-07T18:54:38.575Z,74779.31
2022-09-07T18:57:06.669Z,74794.72
2022-09-07T18:59:33.880Z,74804.34
2022-09-07T19:02:04.242Z,74814.00
2022-09-07T19:07:20.603Z,74837.09
2022-09-07T19:09:48.367Z,74840.97
2022-09-07T19:12:15.724Z,74840.97
2022-09-07T19:14:42.637Z,74850.59
2022-09-07T19:17:12.834Z,74862.13
2022-09-07T19:19:40.046Z,74869.84
2022-09-07T19:22:06.723Z,74879.47
2022-09-07T19:24:33.569Z,74889.09
2022-09-07T19:27:01.075Z,74898.72
2022-09-07T19:29:28.672Z,74908.38
2022-09-07T19:32:04.823Z,74910.28
2022-09-07T19:34:36.757Z,74910.28
2022-09-07T19:37:07.045Z,74894.88
2022-09-07T19:39:34.425Z,74892.97
2022-09-07T19:42:03.816Z,74894.88
2022-09-07T19:44:31.047Z,74894.88
2022-09-07T19:46:57.990Z,74891.03
2022-09-07T19:49:24.775Z,74889.09
2022-09-07T19:51:52.150Z,74891.03
2022-09-07T19:54:19.294Z,74894.88
2022-09-07T19:56:46.298Z,74906.44
2022-09-07T19:59:14.047Z,74891.03
2022-09-07T20:01:45.895Z,74904.50
2022-09-07T20:04:18.953Z,74921.84
2022-09-07T20:06:48.149Z,74933.41
2022-09-07T20:09:14.948Z,74939.19
2022-09-07T20:11:46.130Z,74948.81
2022-09-07T20:14:14.702Z,74956.53
2022-09-07T20:16:41.872Z,74952.66
2022-09-07T20:19:11.037Z,74948.81
2022-09-07T20:21:37.974Z,74944.97
2022-09-07T20:24:04.834Z,74952.66
2022-09-07T20:26:32.524Z,74968.06
2022-09-07T20:29:16.727Z,74985.41
2022-09-07T20:31:47.310Z,74987.34
2022-09-07T20:34:14.411Z,74995.03
2022-09-07T20:36:41.425Z,75006.59
2022-09-07T20:39:08.677Z,75022.00
2022-09-07T20:41:35.440Z,75018.16
2022-09-07T20:44:04.199Z,75029.72
2022-09-07T20:46:31.639Z,75048.97
2022-09-07T20:48:58.838Z,75052.81
2022-09-07T20:51:26.092Z,75054.75
2022-09-07T20:53:53.351Z,75054.75
2022-09-07T20:56:25.913Z,75056.69
2022-09-07T20:59:00.487Z,75062.47
2022-09-07T21:01:28.947Z,75060.53
2022-09-07T21:03:58.073Z,75056.69
2022-09-07T21:06:26.359Z,75064.38
2022-09-07T21:08:54.670Z,75058.59
2022-09-07T21:11:33.654Z,75060.53
2022-09-07T21:14:08.524Z,75068.25
2022-09-07T21:16:36.408Z,75075.94
2022-09-07T21:19:05.945Z,75087.50
2022-09-07T21:21:39.162Z,75114.47
2022-09-07T21:24:07.885Z,75118.31
2022-09-07T21:26:35.028Z,75126.03
2022-09-07T21:29:05.053Z,75129.88
2022-09-07T21:31:33.631Z,75133.72
2022-09-07T21:34:01.743Z,75137.56
2022-09-07T21:36:29.347Z,75141.44
2022-09-07T21:38:56.719Z,75145.28
2022-09-07T21:41:25.285Z,75145.28
2022-09-07T21:43:59.624Z,75141.44
2022-09-07T21:46:27.378Z,75141.44
2022-09-07T21:48:55.860Z,75141.44
2022-09-07T21:51:24.182Z,75137.56
2022-09-07T21:53:55.600Z,75139.50
2022-09-07T21:56:22.369Z,75129.88
2022-09-07T21:58:53.987Z,75126.03
2022-09-07T22:01:21.569Z,75126.03
2022-09-07T22:03:52.880Z,75122.16
2022-09-07T22:06:19.622Z,75131.81
2022-09-07T22:08:46.708Z,75135.66
2022-09-07T22:11:17.436Z,75133.72
2022-09-07T22:13:44.681Z,75124.09
2022-09-07T22:16:12.661Z,75122.16
2022-09-07T22:18:43.557Z,75120.25
2022-09-07T22:21:16.135Z,75118.31
2022-09-07T22:23:48.802Z,75122.16
2022-09-07T22:26:19.438Z,75129.88
2022-09-07T22:28:46.827Z,75127.94
2022-09-07T22:31:17.245Z,75131.81
2022-09-07T22:33:45.403Z,75129.88
2022-09-07T22:36:24.107Z,75129.88
2022-09-07T22:38:53.273Z,75126.03
2022-09-07T22:41:23.131Z,75118.31
2022-09-07T22:43:51.073Z,75133.72
2022-09-07T22:46:20.464Z,75141.44
2022-09-07T22:48:47.436Z,75149.13
2022-09-07T22:51:14.576Z,75156.84
2022-09-07T22:53:43.066Z,75160.69
2022-09-07T22:56:18.594Z,75154.91
2022-09-07T22:58:49.853Z,75149.13
2022-09-07T23:01:16.851Z,75154.91
2022-09-07T23:03:44.678Z,75149.13
2022-09-07T23:06:30.426Z,75145.28
2022-09-07T23:08:59.631Z,75137.56
2022-09-07T23:11:26.894Z,75126.03
2022-09-07T23:13:55.898Z,75116.38
2022-09-07T23:16:22.862Z,75139.50
2022-09-07T23:18:49.984Z,75141.44
2022-09-07T23:21:17.121Z,75153.00
2022-09-07T23:23:44.479Z,75153.00
2022-09-07T23:26:11.387Z,75156.84
2022-09-07T23:28:38.077Z,75153.00
2022-09-07T23:31:04.910Z,75160.69
2022-09-07T23:33:31.899Z,75166.47
2022-09-07T23:36:04.659Z,75168.41
2022-09-07T23:38:32.485Z,75181.88
2022-09-07T23:41:00.602Z,75183.81
2022-09-07T23:43:28.761Z,75181.88
2022-09-07T23:45:56.401Z,75197.28
2022-09-07T23:48:23.747Z,75208.84
2022-09-07T23:50:50.494Z,75214.63
2022-09-07T23:53:18.132Z,75218.47
2022-09-07T23:55:46.010Z,75214.63
2022-09-07T23:58:12.770Z,75226.19
